Time;durP1;ratioP1;P1;durP2;ratioP2;P2;SDS_P1;SDS_P2;PMS_P1;PMS_P2;Temp;Humidity;BMP_temperature;BMP_pressure;BME280_temperature;BME280_humidity;BME280_pressure;Samples;Min_cycle;Max_cycle;Signal;HPM_P1;HPM_P2
2022/01/10 00:01:10;;;;;;;16.40;8.60;;;;;;;-0.82;84.92;94691.66;1801297;80;21000;-65
2022/01/10 00:03:39;;;;;;;16.07;8.47;;;;;;;-0.84;84.31;94693.36;1800865;80;21104;-65
2022/01/10 00:06:08;;;;;;;17.27;8.50;;;;;;;-0.83;84.38;94692.09;1801286;80;21060;-65
2022/01/10 00:08:35;;;;;;;16.17;8.27;;;;;;;-0.88;84.40;94692.04;1801068;80;21092;-65
2022/01/10 00:11:06;;;;;;;16.13;8.87;;;;;;;-0.82;84.60;94696.41;1800728;80;21089;-65
2022/01/10 00:13:33;;;;;;;16.57;7.90;;;;;;;-0.76;84.58;94686.53;1801102;80;20958;-65
2022/01/10 00:15:59;;;;;;;14.67;7.83;;;;;;;-0.81;84.04;94687.77;1800832;80;21092;-65
2022/01/10 00:18:26;;;;;;;16.23;8.07;;;;;;;-0.82;84.08;94689.07;1800699;80;21017;-65
2022/01/10 00:20:53;;;;;;;17.30;8.50;;;;;;;-0.85;83.86;94692.50;1796813;80;21089;-65
2022/01/10 00:23:21;;;;;;;16.93;8.97;;;;;;;-0.82;84.19;94690.36;1792842;80;21393;-65
2022/01/10 00:25:51;;;;;;;16.53;8.73;;;;;;;-0.90;83.76;94700.22;1792027;80;21013;-65
2022/01/10 00:28:20;;;;;;;16.93;9.33;;;;;;;-0.92;84.20;94703.64;1792774;80;20981;-65
2022/01/10 00:30:49;;;;;;;20.50;9.53;;;;;;;-0.93;84.09;94701.48;1792331;80;21104;-65
2022/01/10 00:33:18;;;;;;;18.30;9.63;;;;;;;-0.94;84.00;94708.78;1792321;80;20989;-65
2022/01/10 00:35:47;;;;;;;16.63;9.03;;;;;;;-0.99;84.01;94705.28;1792403;80;21045;-65
2022/01/10 00:38:14;;;;;;;21.17;10.17;;;;;;;-1.05;84.14;94700.48;1793009;80;20953;-65
2022/01/10 00:40:42;;;;;;;22.47;11.27;;;;;;;-1.10;84.30;94706.89;1792303;80;21113;-65
2022/01/10 00:43:17;;;;;;;23.93;11.30;;;;;;;-1.15;84.68;94699.50;1792782;80;21001;-65
2022/01/10 00:45:38;;;;;;;28.57;12.83;;;;;;;-1.13;84.92;94705.14;1791072;80;21546;-65
2022/01/10 00:48:04;;;;;;;24.20;11.37;;;;;;;-1.13;85.12;94695.22;1793043;80;21332;-65
2022/01/10 00:50:33;;;;;;;24.60;11.17;;;;;;;-1.19;84.87;94695.98;1792661;80;21081;-65
2022/01/10 00:53:01;;;;;;;23.50;11.63;;;;;;;-1.15;85.19;94694.33;1792638;80;21116;-65
2022/01/10 00:55:29;;;;;;;53.07;22.40;;;;;;;-1.10;85.21;94697.83;1792860;80;21063;-65
2022/01/10 00:57:58;;;;;;;35.13;15.43;;;;;;;-1.09;85.15;94697.83;1792639;80;21598;-65
2022/01/10 01:00:26;;;;;;;30.97;13.80;;;;;;;-1.07;85.20;94691.82;1792592;80;21609;-65
2022/01/10 01:02:53;;;;;;;28.67;11.90;;;;;;;-1.03;85.18;94698.35;1792478;80;21113;-65
2022/01/10 01:05:22;;;;;;;27.20;12.60;;;;;;;-1.14;84.91;94694.32;1792779;80;20969;-65
2022/01/10 01:07:49;;;;;;;28.93;13.67;;;;;;;-1.15;85.08;94693.89;1792555;80;21069;-65
2022/01/10 01:10:48;;;;;;;24.90;12.03;;;;;;;-1.18;84.98;94703.36;1792597;80;21539;-65
2022/01/10 01:15:30;;;;;;;26.10;11.60;;;;;;;-1.06;85.45;94699.59;1792622;80;20981;-65
2022/01/10 01:26:05;;;;;;;26.70;12.40;;;;;;;-0.89;85.22;94709.70;1786806;80;21057;-65
2022/01/10 01:28:32;;;;;;;28.13;12.77;;;;;;;-0.92;84.75;94699.32;1786873;80;21045;-65
2022/01/10 01:30:59;;;;;;;27.60;12.63;;;;;;;-0.96;84.67;94700.56;1749213;80;21045;-65
2022/01/10 01:33:26;;;;;;;26.50;12.47;;;;;;;-0.98;84.78;94705.74;1787028;80;20986;-65
2022/01/10 01:35:53;;;;;;;29.00;13.10;;;;;;;-0.97;84.53;94702.28;1786863;80;21060;-65
2022/01/10 01:38:21;;;;;;;30.33;13.80;;;;;;;-0.96;84.96;94689.80;1786928;80;21559;-65
2022/01/10 01:40:58;;;;;;;27.00;12.57;;;;;;;-0.88;84.99;94687.30;1786640;80;21017;-65
2022/01/10 01:43:19;;;;;;;25.57;12.47;;;;;;;-0.92;84.41;94682.49;1778989;80;21507;-65
2022/01/10 01:45:49;;;;;;;24.77;11.53;;;;;;;-1.00;84.09;94691.91;1749353;80;20993;-65
2022/01/10 01:48:18;;;;;;;28.00;12.70;;;;;;;-0.98;84.61;94681.14;1786860;80;21020;-65
2022/01/10 01:50:47;;;;;;;30.20;12.83;;;;;;;-0.90;84.86;94684.67;1787245;80;21005;-65
2022/01/10 01:53:14;;;;;;;24.70;11.97;;;;;;;-0.89;84.77;94684.23;1787060;80;21044;-65
2022/01/10 01:55:41;;;;;;;25.53;11.47;;;;;;;-0.97;84.41;94691.06;1749472;80;21077;-65
2022/01/10 01:58:07;;;;;;;27.90;11.77;;;;;;;-1.10;84.61;94687.48;1787280;80;21032;-65
2022/01/10 02:00:34;;;;;;;26.00;11.87;;;;;;;-1.09;84.94;94686.61;1787066;80;21006;-65
2022/01/10 02:03:02;;;;;;;24.90;12.00;;;;;;;-1.04;84.99;94687.97;1749349;80;20981;-64
2022/01/10 02:05:29;;;;;;;24.60;11.70;;;;;;;-1.05;84.84;94687.53;1787325;80;21002;-65
2022/01/10 02:07:56;;;;;;;24.33;11.93;;;;;;;-1.12;84.29;94691.33;1787172;80;21025;-65
2022/01/10 02:10:23;;;;;;;26.63;13.27;;;;;;;-1.14;84.40;94683.97;1786442;80;21094;-67
2022/01/10 02:12:52;;;;;;;27.90;13.47;;;;;;;-1.18;84.72;94669.70;1787085;80;20977;-65
2022/01/10 02:15:41;;;;;;;28.00;12.83;;;;;;;-1.18;84.92;94676.17;1787338;80;21021;-65
2022/01/10 02:18:04;;;;;;;23.53;12.40;;;;;;;-1.20;84.77;94678.73;1752646;80;20982;-65
2022/01/10 02:20:32;;;;;;;26.90;11.60;;;;;;;-1.25;84.73;94671.34;1787000;80;21074;-65
2022/01/10 02:23:00;;;;;;;26.83;13.17;;;;;;;-1.23;84.82;94676.12;1800920;80;21048;-65
2022/01/10 02:25:34;;;;;;;25.30;12.47;;;;;;;-1.20;84.85;94673.98;1799422;80;21021;-66
2022/01/10 02:28:01;;;;;;;26.53;12.73;;;;;;;-1.21;85.03;94670.54;1767323;80;20996;-65
2022/01/10 02:30:28;;;;;;;28.10;12.83;;;;;;;-1.20;85.33;94675.28;1800954;80;20974;-65
2022/01/10 02:33:00;;;;;;;26.73;13.13;;;;;;;-1.21;85.22;94683.88;1801086;80;21047;-65
2022/01/10 02:35:34;;;;;;;26.60;12.17;;;;;;;-1.21;85.31;94679.59;1767034;80;20997;-65
2022/01/10 02:38:00;;;;;;;22.00;11.10;;;;;;;-1.10;85.59;94675.83;1800730;80;21080;-65
2022/01/10 02:40:32;;;;;;;20.27;11.37;;;;;;;-1.05;85.24;94667.69;1800839;80;21045;-65
2022/01/10 02:43:00;;;;;;;23.20;11.47;;;;;;;-1.11;84.76;94674.07;1800929;80;21033;-65
2022/01/10 02:45:27;;;;;;;22.57;11.83;;;;;;;-1.16;84.52;94680.52;1801096;80;21040;-65
2022/01/10 02:47:54;;;;;;;24.63;12.67;;;;;;;-1.23;84.58;94680.43;1801077;80;20997;-65
2022/01/10 02:50:22;;;;;;;28.97;12.97;;;;;;;-1.20;84.98;94675.28;1767155;80;20958;-65
2022/01/10 02:52:49;;;;;;;23.23;11.97;;;;;;;-1.20;84.90;94680.03;1800865;80;21012;-65
2022/01/10 02:55:16;;;;;;;22.50;11.73;;;;;;;-1.21;84.80;94677.41;1800842;80;20989;-65
2022/01/10 02:57:44;;;;;;;28.67;12.57;;;;;;;-1.17;84.84;94685.66;1800957;80;20988;-65
2022/01/10 03:00:19;;;;;;;21.77;10.60;;;;;;;-1.17;84.95;94681.34;1800998;80;21005;-65
2022/01/10 03:02:50;;;;;;;19.17;10.50;;;;;;;-1.17;84.82;94684.38;1800993;80;21008;-65
2022/01/10 03:05:15;;;;;;;19.77;9.60;;;;;;;-1.21;84.56;94686.47;1801216;80;21064;-65
2022/01/10 03:07:42;;;;;;;25.23;11.50;;;;;;;-1.21;84.71;94686.47;1801167;80;21447;-65
2022/01/10 03:10:11;;;;;;;23.23;12.57;;;;;;;-1.23;84.66;94688.20;1801132;80;21522;-65
2022/01/10 03:12:38;;;;;;;23.50;13.03;;;;;;;-1.22;84.82;94691.22;1800593;80;21423;-65
2022/01/10 03:15:08;;;;;;;23.93;11.37;;;;;;;-1.25;84.65;94698.95;1801305;80;21124;-65
2022/01/10 03:17:39;;;;;;;24.57;11.70;;;;;;;-1.29;84.45;94710.10;1801344;80;21005;-65
2022/01/10 03:20:09;;;;;;;20.83;12.07;;;;;;;-1.31;84.62;94700.61;1801095;80;20957;-66
2022/01/10 03:22:36;;;;;;;21.27;11.57;;;;;;;-1.27;84.99;94700.64;1790483;80;21032;-65
2022/01/10 03:25:05;;;;;;;20.00;10.93;;;;;;;-1.31;84.97;94707.08;1787122;80;21010;-65
2022/01/10 03:27:33;;;;;;;15.93;9.20;;;;;;;-1.29;85.14;94703.63;1749556;80;20977;-65
2022/01/10 03:29:59;;;;;;;14.47;8.60;;;;;;;-1.30;85.16;94704.06;1787200;80;21025;-65
2022/01/10 03:32:28;;;;;;;16.47;8.57;;;;;;;-1.23;85.49;94699.84;1787144;80;21069;-65
2022/01/10 03:34:57;;;;;;;15.30;8.07;;;;;;;-1.15;85.73;94700.80;1787255;80;21029;-65
2022/01/10 03:37:25;;;;;;;14.60;8.20;;;;;;;-1.07;85.12;94702.17;1787266;80;21013;-65
2022/01/10 03:39:52;;;;;;;13.70;7.90;;;;;;;-1.12;84.73;94704.70;1787230;80;20994;-65
2022/01/10 03:42:19;;;;;;;13.13;7.73;;;;;;;-1.14;84.63;94699.50;1749126;80;21025;-65
2022/01/10 03:44:46;;;;;;;15.00;9.23;;;;;;;-1.09;84.90;94699.56;1787112;80;21057;-65
2022/01/10 03:47:13;;;;;;;14.53;7.97;;;;;;;-1.09;84.29;94715.09;1787055;80;21100;-65
2022/01/10 03:49:40;;;;;;;17.03;9.93;;;;;;;-1.14;84.21;94721.94;1787300;80;21001;-65
2022/01/10 03:52:06;;;;;;;18.37;10.17;;;;;;;-1.17;84.43;94734.84;1787349;80;20993;-65
2022/01/10 03:54:33;;;;;;;15.90;8.67;;;;;;;-1.16;84.72;94721.94;1786973;80;21349;-65
2022/01/10 03:57:03;;;;;;;12.37;7.47;;;;;;;-1.13;84.74;94731.45;1786886;80;21021;-65
2022/01/10 03:59:34;;;;;;;14.10;7.47;;;;;;;-1.11;84.90;94721.96;1787603;80;20985;-65
2022/01/10 04:02:04;;;;;;;12.67;6.97;;;;;;;-1.06;84.93;94715.12;1787199;80;20974;-65
2022/01/10 04:04:33;;;;;;;12.60;7.30;;;;;;;-1.02;84.85;94714.75;1787277;80;20978;-65
2022/01/10 04:06:59;;;;;;;10.93;6.53;;;;;;;-1.03;84.55;94716.88;1787135;80;21551;-65
2022/01/10 04:09:26;;;;;;;12.93;6.77;;;;;;;-1.01;84.41;94720.35;1787325;80;20993;-65
2022/01/10 04:11:54;;;;;;;12.20;6.83;;;;;;;-1.04;84.14;94721.19;1786777;80;21089;-65
2022/01/10 04:14:23;;;;;;;12.13;7.00;;;;;;;-1.06;84.42;94725.47;1787077;80;21511;-65
2022/01/10 04:16:53;;;;;;;15.97;8.20;;;;;;;-1.02;84.44;94725.10;1787111;80;21001;-65
2022/01/10 04:19:19;;;;;;;14.53;7.63;;;;;;;-1.08;84.19;94737.55;1787231;80;21488;-65
2022/01/10 04:21:46;;;;;;;14.10;7.20;;;;;;;-1.17;83.88;94733.55;1791672;80;21000;-65
2022/01/10 04:24:13;;;;;;;16.77;8.23;;;;;;;-1.27;83.88;94740.76;1800795;80;21072;-65
2022/01/10 04:26:39;;;;;;;15.67;8.33;;;;;;;-1.30;84.67;94736.41;1800913;80;21077;-65
2022/01/10 04:29:12;;;;;;;15.57;8.63;;;;;;;-1.21;85.22;94743.02;1801140;80;21028;-65
2022/01/10 04:31:38;;;;;;;14.00;8.00;;;;;;;-1.18;84.89;94745.63;1801465;80;20957;-65
2022/01/10 04:34:09;;;;;;;14.97;7.47;;;;;;;-1.22;84.47;94748.16;1800817;80;21386;-65
2022/01/10 04:36:36;;;;;;;12.30;7.17;;;;;;;-1.24;84.41;94755.02;1800230;80;21000;-65
2022/01/10 04:39:03;;;;;;;15.43;8.03;;;;;;;-1.26;84.34;94752.44;1801116;80;21528;-65
2022/01/10 04:41:31;;;;;;;14.97;8.20;;;;;;;-1.27;84.91;94749.81;1767039;80;21475;-65
2022/01/10 04:43:58;;;;;;;14.93;8.27;;;;;;;-1.27;85.02;94753.27;1801059;80;21015;-65
2022/01/10 04:46:25;;;;;;;15.43;8.03;;;;;;;-1.28;84.85;94754.12;1801088;80;21466;-65
2022/01/10 04:48:53;;;;;;;14.07;7.93;;;;;;;-1.36;84.41;94760.50;1800750;80;21088;-65
2022/01/10 04:51:21;;;;;;;18.13;8.90;;;;;;;-1.32;85.02;94762.26;1800840;80;21064;-65
2022/01/10 04:53:51;;;;;;;14.33;7.80;;;;;;;-1.21;85.64;94757.64;1800906;80;21554;-65
2022/01/10 04:56:19;;;;;;;13.70;7.90;;;;;;;-1.22;84.94;94760.66;1801103;80;21494;-65
2022/01/10 04:58:49;;;;;;;13.90;7.63;;;;;;;-1.28;84.49;94768.80;1800605;80;20985;-65
2022/01/10 05:01:17;;;;;;;17.60;9.17;;;;;;;-1.32;84.59;94772.61;1801301;80;20957;-65
2022/01/10 05:03:46;;;;;;;17.17;9.10;;;;;;;-1.37;84.65;94765.64;1801004;80;21047;-65
2022/01/10 05:06:14;;;;;;;13.53;8.50;;;;;;;-1.39;85.07;94774.66;1800844;80;20999;-65
2022/01/10 05:08:44;;;;;;;17.47;9.60;;;;;;;-1.32;85.45;94778.22;1801143;80;21004;-65
2022/01/10 05:11:12;;;;;;;16.67;9.37;;;;;;;-1.27;85.34;94771.81;1801233;80;20989;-65
2022/01/10 05:13:39;;;;;;;21.67;9.87;;;;;;;-1.27;85.11;94766.20;1800916;80;20981;-65
2022/01/10 05:16:06;;;;;;;17.43;9.37;;;;;;;-1.26;85.12;94765.37;1800966;80;21019;-65
2022/01/10 05:18:38;;;;;;;17.70;10.03;;;;;;;-1.33;84.68;94767.00;1801135;80;21053;-65
2022/01/10 05:21:03;;;;;;;18.37;10.03;;;;;;;-1.34;84.80;94772.14;1800709;80;21104;-65
2022/01/10 05:23:30;;;;;;;17.10;10.27;;;;;;;-1.36;84.78;94771.25;1788362;80;20997;-65
2022/01/10 05:26:00;;;;;;;17.97;8.37;;;;;;;-1.42;84.68;94773.77;1786819;80;20978;-65
2022/01/10 05:28:26;;;;;;;17.40;9.90;;;;;;;-1.40;84.81;94779.84;1786952;80;21092;-65
2022/01/10 05:31:00;;;;;;;16.30;9.10;;;;;;;-1.49;84.95;94782.28;1786794;80;21101;-65
2022/01/10 05:33:26;;;;;;;16.47;9.57;;;;;;;-1.50;84.82;94783.14;1786822;80;21101;-65
2022/01/10 05:35:52;;;;;;;12.83;7.27;;;;;;;-1.50;84.96;94790.91;1787219;80;20990;-65
2022/01/10 05:38:19;;;;;;;41.20;17.27;;;;;;;-1.53;84.78;94795.61;1786962;80;21057;-65
2022/01/10 05:40:46;;;;;;;34.80;15.47;;;;;;;-1.61;85.07;94797.23;1787033;80;21021;-65
2022/01/10 05:43:13;;;;;;;34.77;15.47;;;;;;;-1.52;85.71;94799.92;1786665;80;21081;-65
2022/01/10 05:45:45;;;;;;;30.63;15.57;;;;;;;-1.41;85.93;94807.44;1787086;80;20981;-65
2022/01/10 05:48:20;;;;;;;27.53;13.73;;;;;;;-1.39;85.77;94807.01;1786840;80;21002;-65
2022/01/10 05:50:44;;;;;;;28.33;14.43;;;;;;;-1.37;85.33;94814.80;1785802;80;21006;-65
2022/01/10 05:53:15;;;;;;;34.27;17.17;;;;;;;-1.37;85.24;94818.69;1787051;80;21036;-65
2022/01/10 05:55:48;;;;;;;23.57;12.90;;;;;;;-1.42;84.98;94822.50;1786974;80;20982;-65
2022/01/10 05:58:16;;;;;;;31.17;16.53;;;;;;;-1.43;84.91;94821.20;1787078;80;21724;-65
2022/01/10 06:00:45;;;;;;;34.03;18.33;;;;;;;-1.45;85.21;94826.77;1787180;80;20973;-65
2022/01/10 06:03:13;;;;;;;37.07;18.27;;;;;;;-1.34;85.86;94817.43;1786474;80;21013;-65
2022/01/10 06:05:41;;;;;;;50.77;24.63;;;;;;;-1.30;85.47;94816.64;1786599;80;21017;-65
2022/01/10 06:08:10;;;;;;;41.90;21.53;;;;;;;-1.30;85.41;94816.64;1786506;80;21073;-65
2022/01/10 06:10:40;;;;;;;31.37;17.57;;;;;;;-1.32;85.22;94819.19;1786840;80;21001;-65
2022/01/10 06:13:18;;;;;;;28.33;15.63;;;;;;;-1.33;85.02;94830.41;1785088;80;21074;-65
2022/01/10 06:15:45;;;;;;;28.87;15.43;;;;;;;-1.33;85.14;94829.11;1786722;80;21052;-65
2022/01/10 06:18:11;;;;;;;27.47;15.40;;;;;;;-1.27;85.48;94831.34;1786788;80;21081;-65
2022/01/10 06:20:38;;;;;;;30.23;17.33;;;;;;;-1.23;85.74;94835.30;1786941;80;21006;-65
2022/01/10 06:23:09;;;;;;;35.97;19.40;;;;;;;-1.17;85.85;94829.33;1786831;80;21070;-65
2022/01/10 06:25:37;;;;;;;36.30;19.00;;;;;;;-1.12;85.78;94837.59;1787162;80;21559;-65
2022/01/10 06:28:08;;;;;;;35.13;18.60;;;;;;;-1.07;85.60;94840.25;1786572;80;21068;-65
2022/01/10 06:30:35;;;;;;;30.93;16.87;;;;;;;-1.17;84.62;94836.66;1786916;80;21013;-64
2022/01/10 06:33:04;;;;;;;24.80;13.00;;;;;;;-1.31;84.40;94831.73;1787037;80;21074;-65
2022/01/10 06:35:33;;;;;;;23.83;12.43;;;;;;;-1.31;85.17;94837.77;1786472;80;20957;-65
2022/01/10 06:38:00;;;;;;;28.50;14.67;;;;;;;-1.28;84.96;94838.67;1786801;80;21456;-65
2022/01/10 06:40:32;;;;;;;28.40;15.00;;;;;;;-1.44;84.24;94839.70;1787399;80;20982;-65
2022/01/10 06:43:02;;;;;;;33.87;17.17;;;;;;;-1.61;83.91;94843.78;1786946;80;20993;-65
2022/01/10 06:45:32;;;;;;;27.00;14.17;;;;;;;-1.77;83.96;94845.23;1787091;80;21475;-65
2022/01/10 06:47:59;;;;;;;27.90;14.20;;;;;;;-1.91;83.93;94838.98;1786895;80;21073;-65
2022/01/10 06:50:26;;;;;;;25.83;14.50;;;;;;;-2.05;84.04;94849.94;1786813;80;21427;-65
2022/01/10 06:52:54;;;;;;;24.07;13.53;;;;;;;-2.12;84.61;94844.62;1787108;80;21511;-65
2022/01/10 06:55:21;;;;;;;226.37;96.23;;;;;;;-2.10;84.91;94858.03;1787176;80;21455;-65
2022/01/10 06:57:48;;;;;;;50.47;24.30;;;;;;;-2.07;85.24;94859.38;1786576;80;21048;-64
2022/01/10 07:00:17;;;;;;;43.83;20.87;;;;;;;-2.09;84.96;94866.25;1787079;80;20981;-64
2022/01/10 07:02:47;;;;;;;67.93;33.03;;;;;;;-2.12;84.96;94865.31;1786285;80;21105;-64
2022/01/10 07:05:14;;;;;;;26.33;13.17;;;;;;;-2.16;85.16;94864.83;1787057;80;20974;-64
2022/01/10 07:07:41;;;;;;;26.80;15.77;;;;;;;-2.21;84.75;94863.44;1787022;80;21013;-64
2022/01/10 07:10:11;;;;;;;20.33;12.20;;;;;;;-2.23;84.99;94860.81;1784721;80;21022;-64
2022/01/10 07:12:38;;;;;;;19.17;10.80;;;;;;;-2.12;85.69;94876.94;1786673;80;21487;-65
2022/01/10 07:15:08;;;;;;;18.63;10.90;;;;;;;-2.05;85.62;94875.78;1787320;80;21455;-64
2022/01/10 07:17:37;;;;;;;21.43;12.27;;;;;;;-1.92;85.82;94883.33;1787142;80;21005;-64
2022/01/10 07:20:09;;;;;;;20.37;11.67;;;;;;;-1.90;85.24;94879.06;1749500;80;21061;-64
2022/01/10 07:22:37;;;;;;;27.30;16.90;;;;;;;-1.85;85.29;94878.72;1791212;80;21020;-64
2022/01/10 07:25:09;;;;;;;18.80;11.67;;;;;;;-1.74;85.61;94889.23;1800573;80;21044;-64
2022/01/10 07:27:36;;;;;;;23.53;12.53;;;;;;;-1.61;85.63;94889.05;1800859;80;21131;-65
2022/01/10 07:30:05;;;;;;;15.07;9.40;;;;;;;-1.53;85.45;94890.04;1801251;80;20997;-64
2022/01/10 07:32:31;;;;;;;18.57;11.53;;;;;;;-1.44;85.09;94890.59;1800825;80;21068;-64
2022/01/10 07:34:58;;;;;;;26.63;14.80;;;;;;;-1.43;84.86;94898.39;1800664;80;21546;-64
2022/01/10 07:37:25;;;;;;;25.80;15.33;;;;;;;-1.39;84.93;94900.59;1801144;80;21001;-65
2022/01/10 07:39:52;;;;;;;27.83;14.07;;;;;;;-1.25;85.23;94899.53;1801031;80;21502;-65
2022/01/10 07:42:19;;;;;;;40.67;23.03;;;;;;;-1.17;85.21;94902.67;1800809;80;21057;-65
2022/01/10 07:44:53;;;;;;;42.33;23.87;;;;;;;-1.02;85.45;94905.91;1798891;80;21574;-65
2022/01/10 07:47:21;;;;;;;39.90;21.23;;;;;;;-0.85;85.09;94907.88;1801312;80;21033;-65
2022/01/10 07:49:48;;;;;;;46.33;22.77;;;;;;;-0.74;84.78;94903.70;1795946;80;21005;-65
2022/01/10 07:52:15;;;;;;;43.23;21.83;;;;;;;-0.58;84.57;94904.77;1801084;80;21521;-64
2022/01/10 07:54:44;;;;;;;43.20;23.10;;;;;;;-0.53;83.68;94908.28;1800878;80;21024;-64
2022/01/10 07:57:10;;;;;;;36.33;18.83;;;;;;;-0.47;83.58;94907.09;1801166;80;21081;-65
2022/01/10 07:59:40;;;;;;;42.33;20.17;;;;;;;-0.44;83.51;94914.89;1800636;80;20969;-65
2022/01/10 08:02:09;;;;;;;35.90;19.47;;;;;;;-0.42;83.13;94914.92;1799646;80;21076;-65
2022/01/10 08:04:36;;;;;;;44.27;22.43;;;;;;;-0.34;83.40;94915.88;1801129;80;21020;-65
2022/01/10 08:07:04;;;;;;;43.17;21.17;;;;;;;-0.19;83.61;94921.68;1800737;80;21080;-65
2022/01/10 08:09:31;;;;;;;39.80;21.67;;;;;;;-0.05;83.10;94912.31;1801325;80;20989;-65
2022/01/10 08:12:02;;;;;;;36.53;20.40;;;;;;;0.08;83.21;94910.32;1801197;80;20993;-65
2022/01/10 08:14:30;;;;;;;25.97;13.70;;;;;;;0.21;82.40;94908.72;1799459;80;21020;-65
2022/01/10 08:17:00;;;;;;;29.33;12.83;;;;;;;0.35;82.40;94914.02;1801200;80;21096;-65
2022/01/10 08:19:28;;;;;;;23.13;12.00;;;;;;;0.41;81.60;94905.88;1801249;80;20965;-65
2022/01/10 08:21:55;;;;;;;21.20;11.20;;;;;;;0.51;81.67;94910.73;1801162;80;21482;-65
2022/01/10 08:24:23;;;;;;;22.10;11.83;;;;;;;0.54;81.09;94913.34;1788032;80;21093;-65
2022/01/10 08:26:52;;;;;;;18.80;10.83;;;;;;;0.63;81.36;94923.82;1787224;80;21432;-65
2022/01/10 08:29:20;;;;;;;22.10;12.10;;;;;;;0.70;80.99;94909.14;1786416;80;20974;-65
2022/01/10 08:31:46;;;;;;;22.70;11.03;;;;;;;0.79;80.78;94913.12;1787196;80;21559;-66
2022/01/10 08:34:16;;;;;;;19.57;10.13;;;;;;;0.89;80.89;94915.37;1786941;80;21009;-66
2022/01/10 08:36:44;;;;;;;21.07;10.73;;;;;;;0.95;79.78;94921.89;1787020;80;20994;-65
2022/01/10 08:39:11;;;;;;;22.07;12.07;;;;;;;1.08;80.62;94925.45;1787440;80;20989;-65
2022/01/10 08:41:37;;;;;;;20.03;12.23;;;;;;;1.16;80.39;94926.39;1787075;80;21026;-66
2022/01/10 08:44:06;;;;;;;17.93;10.70;;;;;;;1.20;79.31;94926.83;1786790;80;21068;-65
2022/01/10 08:46:33;;;;;;;18.47;10.83;;;;;;;1.28;79.18;94930.78;1787128;80;21009;-65
2022/01/10 08:49:00;;;;;;;21.77;11.97;;;;;;;1.37;78.55;94932.14;1787000;80;21041;-66
2022/01/10 08:51:30;;;;;;;21.90;11.03;;;;;;;1.42;77.01;94937.38;1787173;80;20981;-66
2022/01/10 08:53:58;;;;;;;20.70;11.23;;;;;;;1.51;77.25;94933.10;1787147;80;21040;-66
2022/01/10 08:56:24;;;;;;;18.73;9.50;;;;;;;1.64;77.32;94925.37;1786896;80;21116;-65
2022/01/10 08:58:51;;;;;;;23.97;11.77;;;;;;;1.69;76.64;94931.02;1787089;80;21535;-65
2022/01/10 09:01:21;;;;;;;31.07;14.03;;;;;;;1.73;76.31;94931.45;1787076;80;21006;-65
2022/01/10 09:03:49;;;;;;;47.00;20.30;;;;;;;1.76;76.80;94936.23;1787097;80;21116;-65
2022/01/10 09:06:17;;;;;;;49.77;21.00;;;;;;;1.84;76.86;94936.73;1787231;80;21001;-65
2022/01/10 09:08:47;;;;;;;54.13;24.13;;;;;;;1.97;76.98;94926.38;1787190;80;21001;-65
2022/01/10 09:11:14;;;;;;;55.50;23.43;;;;;;;2.10;76.64;94929.02;1787062;80;21471;-65
2022/01/10 09:13:45;;;;;;;54.23;25.27;;;;;;;2.33;75.68;94928.20;1786748;80;21049;-64
2022/01/10 09:16:15;;;;;;;56.03;25.10;;;;;;;2.62;76.18;94921.77;1787359;80;20982;-65
2022/01/10 09:18:43;;;;;;;57.37;26.67;;;;;;;2.97;73.77;94920.47;1786707;80;21583;-64
2022/01/10 09:21:10;;;;;;;59.13;25.93;;;;;;;3.14;72.11;94916.53;1787074;80;21440;-64
2022/01/10 09:23:36;;;;;;;58.53;26.10;;;;;;;3.17;73.02;94916.97;1786862;80;20981;-64
2022/01/10 09:26:03;;;;;;;53.97;24.80;;;;;;;3.23;72.26;94914.37;1787137;80;21487;-64
2022/01/10 09:28:30;;;;;;;50.80;24.63;;;;;;;3.24;72.25;94920.00;1786722;80;21093;-65
2022/01/10 09:30:59;;;;;;;47.17;22.97;;;;;;;3.38;72.42;94920.86;1786901;80;21121;-64
2022/01/10 09:33:31;;;;;;;39.87;21.23;;;;;;;3.33;71.10;94917.39;1787027;80;21037;-64
2022/01/10 09:35:58;;;;;;;40.17;21.87;;;;;;;3.19;71.19;94930.87;1787126;80;21010;-64
2022/01/10 09:38:27;;;;;;;30.60;16.83;;;;;;;3.15;71.71;94927.41;1786901;80;21463;-64
2022/01/10 09:40:56;;;;;;;25.73;15.07;;;;;;;3.13;71.79;94930.89;1787074;80;21066;-64
2022/01/10 09:43:24;;;;;;;25.53;13.60;;;;;;;3.15;71.49;94933.92;1786721;80;21060;-66
2022/01/10 09:45:53;;;;;;;27.23;14.67;;;;;;;3.23;71.95;94926.95;1786680;80;21017;-64
2022/01/10 09:48:20;;;;;;;22.87;13.30;;;;;;;3.30;71.38;94933.05;1787144;80;21029;-64
2022/01/10 09:50:49;;;;;;;23.77;13.37;;;;;;;3.43;71.22;94925.63;1787440;80;21018;-64
2022/01/10 09:53:21;;;;;;;26.60;14.80;;;;;;;3.57;70.62;94926.03;1787007;80;21006;-64
2022/01/10 09:55:51;;;;;;;27.53;13.90;;;;;;;3.81;71.05;94925.96;1787183;80;21089;-65
2022/01/10 09:58:17;;;;;;;30.27;15.90;;;;;;;3.99;69.54;94920.25;1787151;80;21025;-64
2022/01/10 10:00:46;;;;;;;28.87;16.00;;;;;;;3.95;68.14;94927.20;1786546;80;21018;-65
2022/01/10 10:03:13;;;;;;;29.87;17.63;;;;;;;4.21;69.20;94924.91;1787071;80;20958;-65
2022/01/10 10:05:42;;;;;;;30.80;17.67;;;;;;;4.55;67.30;94926.91;1786798;80;21017;-65
2022/01/10 10:08:09;;;;;;;27.93;15.70;;;;;;;4.81;67.92;94924.12;1787177;80;21036;-65
2022/01/10 10:10:38;;;;;;;24.50;15.73;;;;;;;5.05;66.00;94919.16;1786788;80;21081;-65
2022/01/10 10:13:05;;;;;;;25.67;15.23;;;;;;;5.10;65.76;94931.75;1786917;80;21045;-69
2022/01/10 10:15:32;;;;;;;30.07;16.37;;;;;;;5.31;64.84;94927.21;1786760;80;21085;-65
2022/01/10 10:17:59;;;;;;;32.40;18.27;;;;;;;5.60;66.09;94925.64;1787039;80;21029;-66
2022/01/10 10:20:27;;;;;;;27.90;16.43;;;;;;;5.80;65.28;94921.05;1786624;80;21405;-65
2022/01/10 10:22:54;;;;;;;28.50;16.97;;;;;;;6.12;62.82;94926.83;1787230;80;20986;-64
2022/01/10 10:25:21;;;;;;;27.77;18.40;;;;;;;6.27;63.00;94924.02;1786914;80;21104;-63
2022/01/10 10:27:51;;;;;;;35.43;20.87;;;;;;;6.10;61.44;94925.55;1786946;80;21042;-63
2022/01/10 10:30:22;;;;;;;35.63;20.27;;;;;;;6.22;62.51;94931.06;1787007;80;21120;-63
2022/01/10 10:32:50;;;;;;;30.53;19.10;;;;;;;6.47;61.37;94927.23;1787064;80;21069;-64
2022/01/10 10:35:17;;;;;;;37.93;23.80;;;;;;;6.47;59.55;94934.23;1786842;80;21012;-64
2022/01/10 10:37:45;;;;;;;38.70;24.17;;;;;;;6.66;60.94;94930.94;1786772;80;21090;-64
2022/01/10 10:40:15;;;;;;;42.57;25.77;;;;;;;6.55;58.86;94937.64;1787104;80;20946;-64
2022/01/10 10:42:43;;;;;;;44.23;25.67;;;;;;;6.33;59.29;94938.36;1786959;80;21009;-64
2022/01/10 10:45:13;;;;;;;39.20;24.17;;;;;;;5.99;60.07;94942.67;1749035;80;21077;-64
2022/01/10 10:47:44;;;;;;;43.63;26.87;;;;;;;5.49;60.49;94946.66;1787148;80;21053;-63
2022/01/10 10:50:11;;;;;;;38.33;23.77;;;;;;;5.26;61.85;94944.25;1787020;80;21001;-64
2022/01/10 10:52:42;;;;;;;35.60;21.20;;;;;;;5.18;62.81;94942.14;1787010;80;21002;-63
2022/01/10 10:55:15;;;;;;;34.70;22.10;;;;;;;5.28;63.48;94949.03;1786891;80;21021;-63
2022/01/10 10:57:43;;;;;;;32.17;20.25;;;;;;;5.41;62.19;94945.86;1786950;80;21085;-63
2022/01/10 11:00:15;;;;;;;32.00;19.77;;;;;;;5.37;61.11;94950.72;1786874;80;21082;-63
2022/01/10 11:02:45;;;;;;;34.37;21.03;;;;;;;5.56;61.30;94945.72;1786827;80;21599;-64
2022/01/10 11:05:13;;;;;;;27.43;16.03;;;;;;;6.00;61.48;94943.13;1786819;80;21005;-64
2022/01/10 11:07:47;;;;;;;28.10;15.83;;;;;;;6.13;59.43;94942.98;1786647;80;21517;-64
2022/01/10 11:10:17;;;;;;;26.53;15.70;;;;;;;6.19;59.78;94948.14;1779957;80;20962;-64
2022/01/10 11:12:49;;;;;;;21.10;13.00;;;;;;;6.61;59.16;94940.17;1787068;80;21500;-63
2022/01/10 11:15:17;;;;;;;23.98;14.15;;;;;;;6.94;57.49;94945.37;1785600;80;21068;-63
2022/01/10 11:17:44;;;;;;;20.50;12.15;;;;;;;7.02;57.07;94948.33;1786554;80;21021;-63
2022/01/10 11:20:20;;;;;;;22.90;13.00;;;;;;;6.85;57.05;94945.94;1787031;80;21114;-63
2022/01/10 11:22:51;;;;;;;17.65;11.15;;;;;;;7.10;56.96;94953.00;1787164;80;20978;-63
2022/01/10 11:25:29;;;;;;;22.32;12.30;;;;;;;7.34;56.95;94953.07;1792093;80;21029;-63
2022/01/10 11:28:05;;;;;;;18.50;11.43;;;;;;;7.50;56.86;94953.22;1788509;80;21534;-63
2022/01/10 11:30:40;;;;;;;20.27;12.95;;;;;;;7.82;54.74;94947.00;1792087;80;21092;-63
2022/01/10 11:33:16;;;;;;;21.33;13.13;;;;;;;7.67;54.53;94956.02;1792550;80;21470;-63
2022/01/10 11:35:56;;;;;;;20.90;13.05;;;;;;;7.29;54.90;94955.77;1792730;80;21005;-63
2022/01/10 11:38:41;;;;;;;24.55;13.40;;;;;;;7.14;56.43;94966.05;1793280;80;21073;-63